N21UT KDAL-

Flight info

Callsign N21UT
Flight time N/A
Altitude VFR
Route
Aircraft AS50/L-DOV/C

Departure

Time 2026-04-29 21:34
Airport Dallas Love Field (KDAL)

Arrival

Time N/A
Airport -
Time Latitude Longitude Altitude Speed Heading
2026-04-29 21:29 32.85389 -96.85056 482 ft 0 kts 49°
2026-04-29 21:31 32.85388 -96.85062 484 ft 2 kts 49°
2026-04-29 21:31 32.85392 -96.85040 486 ft 5 kts 84°
2026-04-29 21:31 32.85327 -96.84950 492 ft 20 kts 127°
2026-04-29 21:31 32.85315 -96.85024 509 ft 40 kts 319°
2026-04-29 21:32 32.85641 -96.85398 599 ft 80 kts 324°
2026-04-29 21:32 32.86137 -96.85418 917 ft 85 kts 25°
2026-04-29 21:32 32.86200 -96.84676 1081 ft 110 kts 110°
2026-04-29 21:32 32.85445 -96.84176 1035 ft 135 kts 154°
2026-04-29 21:33 32.84565 -96.83767 973 ft 141 kts 159°
2026-04-29 21:33 32.83627 -96.83443 948 ft 141 kts 167°
2026-04-29 21:33 32.82683 -96.83157 977 ft 138 kts 163°
2026-04-29 21:33 32.81765 -96.82861 1067 ft 133 kts 162°
2026-04-29 21:34 32.80877 -96.82561 1153 ft 126 kts 153°
2026-04-29 21:34 32.80025 -96.82122 942 ft 134 kts 151°
2026-04-29 21:34 32.79235 -96.81656 892 ft 122 kts 152°
2026-04-29 21:34 32.78519 -96.81164 1091 ft 118 kts 142°
2026-04-29 21:35 32.77950 -96.80493 1206 ft 116 kts 107°
2026-04-29 21:35 32.78021 -96.79577 1127 ft 109 kts 72°
2026-04-29 21:35 32.78235 -96.78792 1020 ft 94 kts 69°
2026-04-29 21:35 32.78380 -96.78055 687 ft 69 kts 43°
2026-04-29 21:36 32.78688 -96.78086 561 ft 41 kts 10°
2026-04-29 21:36 32.78814 -96.78021 519 ft 4 kts 24°
2026-04-29 21:36 32.78829 -96.78011 520 ft 3 kts 24°
2026-04-29 21:36 32.78831 -96.78010 514 ft 0 kts 28°